Time;durP1;ratioP1;P1;durP2;ratioP2;P2;SDS_P1;SDS_P2;PMS_P1;PMS_P2;Temp;Humidity;BMP_temperature;BMP_pressure;BME280_temperature;BME280_humidity;BME280_pressure;Samples;Min_cycle;Max_cycle;Signal;HPM_P1;HPM_P2
2022/04/07 00:00:21;;;;;;;5.20;2.47;;;9.20;99.90;;;;;;5029067;28;20037;-59
2022/04/07 00:02:47;;;;;;;5.45;2.88;;;9.20;99.90;;;;;;5050109;28;20496;-60
2022/04/07 00:05:12;;;;;;;4.63;2.80;;;9.20;99.90;;;;;;5030798;28;20081;-60
2022/04/07 00:07:38;;;;;;;6.18;2.58;;;9.30;99.70;;;;;;5028488;28;20021;-60
2022/04/07 00:10:04;;;;;;;6.25;2.75;;;9.20;99.00;;;;;;5049079;28;20194;-60
2022/04/07 00:12:33;;;;;;;5.93;2.08;;;9.20;98.70;;;;;;5028807;28;20025;-60
2022/04/07 00:15:00;;;;;;;6.70;2.38;;;9.20;98.80;;;;;;5049605;28;20028;-60
2022/04/07 00:17:29;;;;;;;6.40;2.67;;;9.20;99.00;;;;;;5031826;28;20388;-60
2022/04/07 00:19:55;;;;;;;5.40;2.00;;;9.10;98.50;;;;;;5049871;28;20033;-60
2022/04/07 00:22:20;;;;;;;7.65;2.80;;;8.90;99.70;;;;;;5028591;28;20394;-60
2022/04/07 00:24:46;;;;;;;8.50;2.55;;;8.80;99.90;;;;;;5048971;28;20100;-60
2022/04/07 00:27:11;;;;;;;5.75;2.05;;;8.70;99.90;;;;;;5028733;28;20392;-60
2022/04/07 00:29:37;;;;;;;7.53;2.83;;;8.60;99.90;;;;;;5048813;28;20500;-59
2022/04/07 00:32:05;;;;;;;7.35;3.58;;;8.50;99.90;;;;;;5028399;28;20045;-59
2022/04/07 00:34:31;;;;;;;10.38;2.97;;;8.40;99.90;;;;;;5049224;28;20037;-60
2022/04/07 00:36:57;;;;;;;5.10;2.03;;;8.40;99.90;;;;;;5028438;28;20025;-60
2022/04/07 00:39:23;;;;;;;5.53;2.42;;;8.30;99.90;;;;;;5048876;28;20067;-59
2022/04/07 00:41:48;;;;;;;5.82;2.45;;;8.20;99.90;;;;;;5028155;28;20032;-60
2022/04/07 00:44:14;;;;;;;3.28;1.95;;;8.10;99.90;;;;;;5047775;28;20029;-60
2022/04/07 00:46:40;;;;;;;3.25;2.00;;;8.30;99.90;;;;;;5028337;28;20053;-59
2022/04/07 00:49:07;;;;;;;2.65;2.35;;;8.30;99.90;;;;;;5048378;28;20558;-59
2022/04/07 00:51:33;;;;;;;2.05;1.70;;;8.30;99.90;;;;;;5037774;28;20056;-60
2022/04/07 00:53:59;;;;;;;5.47;1.98;;;8.30;99.90;;;;;;5029720;28;20396;-60
2022/04/07 00:56:26;;;;;;;4.45;2.30;;;8.30;99.90;;;;;;5046820;28;20115;-60
2022/04/07 00:58:53;;;;;;;3.38;2.03;;;8.30;99.90;;;;;;5029594;28;20036;-60
2022/04/07 01:01:22;;;;;;;3.88;2.17;;;8.20;99.90;;;;;;5046724;28;20028;-60
2022/04/07 01:03:50;;;;;;;4.72;2.30;;;8.20;99.90;;;;;;5029129;28;20029;-59
2022/04/07 01:06:15;;;;;;;4.65;1.92;;;8.10;99.90;;;;;;5046710;28;20024;-59
2022/04/07 01:08:41;;;;;;;4.57;2.67;;;8.00;99.90;;;;;;5049244;28;20029;-59
2022/04/07 01:11:08;;;;;;;7.13;2.60;;;7.90;99.90;;;;;;5033983;28;20033;-60
2022/04/07 01:14:22;;;;;;;5.53;2.70;;;8.00;99.90;;;;;;5047373;28;20021;-60
2022/04/07 01:17:48;;;;;;;4.40;2.15;;;8.00;99.90;;;;;;5033063;28;20377;-55
2022/04/07 01:21:17;;;;;;;9.57;3.83;;;7.90;99.90;;;;;;5009230;28;20061;-52
2022/04/07 01:24:50;;;;;;;3.50;2.00;;;7.90;99.90;;;;;;5043560;28;20377;-53
2022/04/07 01:28:16;;;;;;;7.00;2.40;;;7.80;99.90;;;;;;5043248;28;20045;-59
2022/04/07 01:31:41;;;;;;;4.97;2.10;;;7.70;99.90;;;;;;5008990;28;20413;-59
2022/04/07 01:35:07;;;;;;;6.00;2.25;;;7.70;99.90;;;;;;5043297;28;20039;-59
2022/04/07 01:38:32;;;;;;;3.35;2.30;;;7.60;99.90;;;;;;5043386;28;20040;-60
2022/04/07 01:41:57;;;;;;;2.90;2.15;;;7.50;99.90;;;;;;5008910;28;20041;-59
2022/04/07 01:45:23;;;;;;;4.25;2.47;;;7.50;99.90;;;;;;5042319;28;20045;-59
2022/04/07 01:48:48;;;;;;;3.70;2.17;;;7.60;99.90;;;;;;5026065;28;20052;-59
2022/04/07 01:52:13;;;;;;;6.28;2.47;;;7.50;99.90;;;;;;5037407;28;20045;-60
2022/04/07 01:55:39;;;;;;;6.00;2.95;;;7.60;99.90;;;;;;5044522;28;20060;-60
2022/04/07 01:59:04;;;;;;;5.13;3.17;;;7.80;99.90;;;;;;5035381;28;20067;-59
2022/04/07 02:02:29;;;;;;;6.07;3.15;;;7.90;99.90;;;;;;5012594;28;20088;-59
2022/04/07 02:05:55;;;;;;;5.75;2.80;;;8.00;99.90;;;;;;5041036;28;20407;-59
2022/04/07 02:09:20;;;;;;;3.65;2.42;;;7.90;99.90;;;;;;5025483;28;20041;-59
2022/04/07 02:12:46;;;;;;;4.80;2.25;;;7.90;99.90;;;;;;5046520;28;20041;-60
2022/04/07 02:16:11;;;;;;;4.72;2.72;;;7.80;99.90;;;;;;5033838;28;20045;-60
2022/04/07 02:19:36;;;;;;;5.82;2.60;;;7.70;99.90;;;;;;5025217;28;20037;-59
2022/04/07 02:23:02;;;;;;;9.73;3.00;;;7.70;99.90;;;;;;5038946;28;20404;-59
2022/04/07 02:26:33;;;;;;;5.15;2.40;;;7.90;99.90;;;;;;5012186;28;20034;-60
2022/04/07 02:29:58;;;;;;;4.60;2.80;;;8.00;99.90;;;;;;5049096;28;20033;-60
2022/04/07 02:33:24;;;;;;;10.25;3.88;;;8.20;99.90;;;;;;5032718;28;20037;-59
2022/04/07 02:36:49;;;;;;;7.47;3.08;;;8.30;99.90;;;;;;5012185;28;20524;-60
2022/04/07 02:40:15;;;;;;;6.10;3.08;;;8.30;99.90;;;;;;5040371;28;20071;-60
2022/04/07 02:43:40;;;;;;;9.10;4.03;;;8.40;99.90;;;;;;5044089;28;20037;-60
2022/04/07 02:47:05;;;;;;;7.28;3.17;;;8.50;99.90;;;;;;5040437;28;20049;-60
2022/04/07 02:50:31;;;;;;;7.80;3.70;;;8.60;99.90;;;;;;5031790;28;20048;-60
2022/04/07 02:53:58;;;;;;;7.72;4.35;;;8.70;99.90;;;;;;5031020;28;20454;-60
2022/04/07 02:57:22;;;;;;;7.63;3.50;;;8.70;99.90;;;;;;5039235;28;20037;-60
2022/04/07 03:00:47;;;;;;;4.95;3.50;;;8.50;99.90;;;;;;5043394;28;20119;-60
2022/04/07 03:04:13;;;;;;;5.32;3.40;;;8.30;99.90;;;;;;5032983;28;20033;-60
2022/04/07 03:07:38;;;;;;;5.10;2.92;;;8.10;99.90;;;;;;5039069;28;20412;-59
2022/04/07 03:11:03;;;;;;;6.47;3.60;;;8.00;99.90;;;;;;5032462;28;20045;-59
2022/04/07 03:14:28;;;;;;;6.75;3.88;;;7.80;99.90;;;;;;5030604;28;20412;-59
2022/04/07 03:17:54;;;;;;;5.28;3.80;;;7.80;99.90;;;;;;5029139;28;20025;-59
2022/04/07 03:21:19;;;;;;;6.18;3.58;;;7.70;99.90;;;;;;5039861;28;20545;-59
2022/04/07 03:24:44;;;;;;;7.30;3.58;;;7.70;99.90;;;;;;5043594;28;20033;-59
2022/04/07 03:28:10;;;;;;;6.53;4.05;;;7.80;99.90;;;;;;5045620;28;20039;-59
2022/04/07 03:31:35;;;;;;;5.05;3.40;;;7.80;99.90;;;;;;5011089;28;20058;-59
2022/04/07 03:35:01;;;;;;;6.13;3.65;;;7.80;99.90;;;;;;5043220;28;20532;-60
2022/04/07 03:38:26;;;;;;;4.15;3.50;;;7.60;99.90;;;;;;5021862;28;20063;-59
2022/04/07 03:41:51;;;;;;;4.45;3.13;;;7.60;99.90;;;;;;5010971;28;20048;-59
2022/04/07 03:45:17;;;;;;;6.60;3.88;;;7.60;99.90;;;;;;5039357;28;20029;-59
2022/04/07 03:48:42;;;;;;;8.05;4.55;;;7.60;99.90;;;;;;5028404;28;20055;-59
2022/04/07 03:52:08;;;;;;;5.60;3.53;;;7.60;99.90;;;;;;5039382;28;20041;-59
2022/04/07 03:55:33;;;;;;;6.50;3.20;;;7.60;99.90;;;;;;5044756;28;20140;-59
2022/04/07 03:58:58;;;;;;;6.40;3.53;;;7.50;99.90;;;;;;5026752;28;20029;-59
2022/04/07 04:02:23;;;;;;;5.47;3.10;;;7.40;99.90;;;;;;5046580;28;20033;-59
2022/04/07 04:05:09;;;;;;;5.45;3.20;;;7.40;99.90;;;;;;5021782;28;20444;-60
2022/04/07 04:08:14;;;;;;;5.72;3.38;;;7.40;99.90;;;;;;5029367;28;20092;-60
2022/04/07 04:11:40;;;;;;;5.35;3.20;;;7.30;99.90;;;;;;5045719;28;20139;-60
2022/04/07 04:15:05;;;;;;;5.97;2.90;;;7.30;99.90;;;;;;5037195;28;20641;-59
2022/04/07 04:18:30;;;;;;;13.05;4.05;;;7.40;99.90;;;;;;5023262;28;20037;-60
2022/04/07 04:21:56;;;;;;;6.88;4.10;;;7.40;99.90;;;;;;5025039;28;20033;-60
2022/04/07 04:25:22;;;;;;;4.28;3.28;;;7.50;99.90;;;;;;5029477;28;20056;-59
2022/04/07 04:28:46;;;;;;;6.30;3.58;;;7.60;99.90;;;;;;5010287;28;20041;-60
2022/04/07 04:32:12;;;;;;;4.15;3.20;;;7.80;99.90;;;;;;5038839;28;20393;-60
2022/04/07 04:35:37;;;;;;;5.95;3.13;;;8.00;99.90;;;;;;5027001;28;20041;-60
2022/04/07 04:39:03;;;;;;;7.13;3.33;;;8.20;99.90;;;;;;5046144;28;20394;-60
2022/04/07 04:42:28;;;;;;;7.18;2.85;;;8.30;99.90;;;;;;5047886;28;20036;-60
2022/04/07 04:45:53;;;;;;;4.57;2.40;;;8.40;99.90;;;;;;5032091;28;20038;-60
2022/04/07 04:49:19;;;;;;;5.00;2.50;;;8.50;99.90;;;;;;5046059;28;20052;-60
2022/04/07 04:52:44;;;;;;;5.30;2.88;;;8.60;99.90;;;;;;5034834;28;20045;-60
2022/04/07 04:56:09;;;;;;;5.25;2.85;;;8.70;99.90;;;;;;5036599;28;20037;-60
2022/04/07 04:59:35;;;;;;;4.10;2.70;;;8.80;99.90;;;;;;5036218;28;20132;-59
2022/04/07 05:03:00;;;;;;;4.25;2.75;;;8.90;99.90;;;;;;5031181;28;20056;-59
2022/04/07 05:06:26;;;;;;;6.35;2.80;;;8.90;99.90;;;;;;5040816;28;20037;-59
2022/04/07 05:09:51;;;;;;;10.45;3.38;;;9.00;99.90;;;;;;5035959;28;20404;-60
2022/04/07 05:13:16;;;;;;;3.85;2.55;;;9.10;99.90;;;;;;5030909;28;20082;-60
2022/04/07 05:16:42;;;;;;;4.60;2.78;;;9.20;99.90;;;;;;5044454;28;20065;-60
2022/04/07 05:20:07;;;;;;;5.15;2.60;;;9.30;99.90;;;;;;5017659;28;20037;-60
2022/04/07 05:23:32;;;;;;;5.57;3.17;;;9.50;99.90;;;;;;5007849;28;20115;-60
2022/04/07 05:26:58;;;;;;;4.95;2.75;;;9.60;99.90;;;;;;5036175;28;20112;-60
2022/04/07 05:30:23;;;;;;;5.30;2.63;;;9.80;99.90;;;;;;5022940;28;20695;-55
2022/04/07 05:33:48;;;;;;;4.57;3.15;;;9.90;99.90;;;;;;5042505;28;20484;-57
2022/04/07 05:37:14;;;;;;;5.38;3.03;;;9.90;99.90;;;;;;5047128;28;20072;-53
2022/04/07 05:40:39;;;;;;;4.45;2.63;;;10.20;98.40;;;;;;5029629;28;20049;-56
2022/04/07 05:44:05;;;;;;;3.85;2.55;;;10.70;97.10;;;;;;5041642;28;20033;-55
2022/04/07 05:47:30;;;;;;;3.85;2.50;;;10.90;93.20;;;;;;5041436;28;20041;-56
2022/04/07 05:50:55;;;;;;;3.35;2.08;;;11.00;91.40;;;;;;5027099;28;20452;-56
2022/04/07 05:54:21;;;;;;;5.43;2.30;;;11.20;90.40;;;;;;5049033;28;20040;-56
2022/04/07 05:57:46;;;;;;;4.45;2.38;;;11.10;89.10;;;;;;5052455;28;20040;-58
2022/04/07 06:01:11;;;;;;;5.57;2.58;;;11.10;90.80;;;;;;5031395;28;20064;-57
2022/04/07 06:04:39;;;;;;;3.30;2.13;;;11.20;90.70;;;;;;5045693;28;20048;-56
2022/04/07 06:08:03;;;;;;;4.25;2.08;;;11.30;89.50;;;;;;5047308;28;20396;-57
2022/04/07 06:11:27;;;;;;;2.78;2.00;;;11.40;90.10;;;;;;5031237;28;20045;-57
2022/04/07 06:14:53;;;;;;;3.85;2.20;;;11.50;87.30;;;;;;5026944;28;20512;-54
2022/04/07 06:18:18;;;;;;;4.85;2.17;;;12.20;80.30;;;;;;5038277;28;20033;-56
2022/04/07 06:21:04;;;;;;;5.72;2.63;;;12.70;76.30;;;;;;5025978;28;20105;-57
2022/04/07 06:23:31;;;;;;;4.50;1.88;;;13.40;64.00;;;;;;5031377;28;20029;-56
2022/04/07 06:25:57;;;;;;;4.47;1.73;;;13.70;65.90;;;;;;5048527;28;20087;-56
2022/04/07 06:28:22;;;;;;;4.55;2.30;;;13.70;62.70;;;;;;5050823;28;20475;-56
2022/04/07 06:30:51;;;;;;;3.05;1.70;;;14.00;62.80;;;;;;5035604;28;20120;-57
2022/04/07 06:33:17;;;;;;;7.53;2.45;;;13.60;58.00;;;;;;5050828;28;20021;-58
2022/04/07 06:35:43;;;;;;;4.25;2.20;;;13.20;63.30;;;;;;5034677;28;20079;-54
2022/04/07 06:38:08;;;;;;;2.67;1.98;;;12.80;66.10;;;;;;5050874;28;20029;-57
2022/04/07 06:40:34;;;;;;;3.50;2.58;;;12.50;69.00;;;;;;5033536;28;20029;-57
2022/04/07 06:42:59;;;;;;;2.05;1.80;;;12.30;72.80;;;;;;5050974;28;20476;-55
2022/04/07 06:45:26;;;;;;;16.48;2.05;;;12.20;74.40;;;;;;5032258;28;20032;-55
2022/04/07 06:47:52;;;;;;;8.30;2.20;;;12.00;75.10;;;;;;5043210;28;20041;-57
2022/04/07 06:50:19;;;;;;;3.05;2.00;;;12.00;76.50;;;;;;5030594;28;20033;-56
2022/04/07 06:52:45;;;;;;;4.47;1.70;;;12.00;76.30;;;;;;5050574;28;20096;-54
2022/04/07 06:55:15;;;;;;;4.25;2.25;;;12.00;76.80;;;;;;5030428;28;20047;-56
2022/04/07 06:58:09;;;;;;;4.68;1.55;;;11.90;77.00;;;;;;5050674;28;20021;-56
2022/04/07 07:00:41;;;;;;;5.47;1.55;;;12.00;76.70;;;;;;5015689;28;20357;-56
2022/04/07 07:03:06;;;;;;;4.10;1.88;;;11.90;77.30;;;;;;5050056;28;20033;-57
2022/04/07 07:05:36;;;;;;;5.65;1.98;;;11.90;77.20;;;;;;5032843;28;20178;-57
2022/04/07 07:08:21;;;;;;;3.83;1.73;;;11.80;75.40;;;;;;5050129;28;20040;-57
2022/04/07 07:10:49;;;;;;;4.95;2.13;;;11.80;76.50;;;;;;5034160;28;20179;-58
2022/04/07 07:13:16;;;;;;;2.45;1.70;;;11.80;77.30;;;;;;5050346;28;20466;-57
2022/04/07 07:15:42;;;;;;;5.45;1.95;;;11.90;76.50;;;;;;5033730;28;20059;-58
2022/04/07 07:18:08;;;;;;;2.95;1.70;;;12.20;74.80;;;;;;5025950;28;20029;-54
2022/04/07 07:20:34;;;;;;;3.35;1.98;;;12.50;72.70;;;;;;5047212;28;20364;-57
2022/04/07 07:23:00;;;;;;;1.73;1.30;;;12.90;67.30;;;;;;5049881;28;20504;-55
2022/04/07 07:25:25;;;;;;;3.85;1.92;;;13.90;61.80;;;;;;5031516;28;20033;-56
2022/04/07 07:27:51;;;;;;;3.63;1.70;;;14.30;55.90;;;;;;5049858;28;20118;-56
2022/04/07 07:30:17;;;;;;;2.50;1.30;;;14.90;54.70;;;;;;5030282;28;20073;-57
2022/04/07 07:32:45;;;;;;;2.95;1.67;;;15.90;47.80;;;;;;5049862;28;20091;-57
2022/04/07 07:35:11;;;;;;;3.50;1.80;;;16.80;42.70;;;;;;5028904;28;20040;-57
2022/04/07 07:37:46;;;;;;;2.75;1.30;;;17.40;41.20;;;;;;5049739;28;20075;-56
2022/04/07 07:40:12;;;;;;;4.65;1.48;;;19.30;32.50;;;;;;5016521;28;20551;-57
2022/04/07 07:42:37;;;;;;;8.02;1.60;;;21.70;24.60;;;;;;5049598;28;20601;-56
2022/04/07 07:45:04;;;;;;;2.08;1.38;;;23.50;22.30;;;;;;5028037;28;20049;-54
2022/04/07 07:47:30;;;;;;;1.85;1.10;;;24.40;18.20;;;;;;5015325;28;20116;-57
2022/04/07 07:49:55;;;;;;;4.82;1.50;;;25.10;19.00;;;;;;5046664;28;20128;-56
2022/04/07 07:52:21;;;;;;;3.75;1.10;;;25.00;16.50;;;;;;5027308;28;20065;-56
2022/04/07 07:54:47;;;;;;;1.65;1.17;;;23.40;15.30;;;;;;5048361;28;20056;-54
2022/04/07 07:57:12;;;;;;;2.47;1.35;;;24.10;17.50;;;;;;5028257;28;20109;-56
2022/04/07 07:59:37;;;;;;;5.18;1.30;;;23.50;16.10;;;;;;5035545;28;20481;-53
2022/04/07 08:02:03;;;;;;;1.83;1.30;;;21.90;17.40;;;;;;5027420;28;20115;-53
2022/04/07 08:04:29;;;;;;;1.80;1.20;;;21.20;21.10;;;;;;5048219;28;20119;-53
2022/04/07 08:06:54;;;;;;;5.35;1.42;;;20.30;22.20;;;;;;5028023;28;20033;-53
2022/04/07 08:09:20;;;;;;;1.75;1.00;;;20.00;21.60;;;;;;5048072;28;20228;-51
2022/04/07 08:11:45;;;;;;;1.20;1.02;;;19.70;23.20;;;;;;5027549;28;20030;-55
2022/04/07 08:14:11;;;;;;;2.67;1.05;;;19.10;24.00;;;;;;5048382;28;20020;-52
2022/04/07 08:16:37;;;;;;;2.70;1.00;;;18.10;24.30;;;;;;5027707;28;20037;-53
2022/04/07 08:19:03;;;;;;;3.83;1.17;;;17.70;26.90;;;;;;5002177;28;20019;-55
2022/04/07 08:21:29;;;;;;;1.48;1.02;;;17.30;27.40;;;;;;5034273;28;20291;-57
2022/04/07 08:23:54;;;;;;;3.10;1.20;;;16.90;28.50;;;;;;5047600;28;20017;-57
2022/04/07 08:26:21;;;;;;;0.93;0.93;;;17.30;27.50;;;;;;5038321;28;20332;-56
2022/04/07 08:28:46;;;;;;;1.83;1.02;;;18.00;26.90;;;;;;5029140;28;20026;-57
2022/04/07 08:31:11;;;;;;;4.60;1.52;;;18.00;26.80;;;;;;5045924;28;20308;-55
2022/04/07 08:33:37;;;;;;;3.00;1.00;;;17.10;27.20;;;;;;5029404;28;20036;-55
2022/04/07 08:36:03;;;;;;;6.90;1.50;;;16.70;28.90;;;;;;5045679;28;20048;-56
2022/04/07 08:38:29;;;;;;;1.58;1.00;;;16.20;29.90;;;;;;5029131;28;20025;-54
2022/04/07 08:40:55;;;;;;;1.38;1.27;;;15.90;31.80;;;;;;5045768;28;20025;-52
2022/04/07 08:43:22;;;;;;;2.08;0.80;;;15.60;33.50;;;;;;5048254;28;20017;-57
2022/04/07 08:45:49;;;;;;;1.70;1.20;;;16.80;31.40;;;;;;5011909;28;20396;-56
2022/04/07 08:48:15;;;;;;;1.38;0.88;;;17.70;28.20;;;;;;5027906;28;20044;-55
2022/04/07 08:50:43;;;;;;;3.92;1.20;;;18.50;26.80;;;;;;5045762;28;20063;-55
2022/04/07 08:53:10;;;;;;;1.77;0.80;;;20.90;20.80;;;;;;5048372;28;20017;-55
2022/04/07 08:55:35;;;;;;;0.70;0.70;;;22.70;19.80;;;;;;5030965;28;20025;-57
2022/04/07 08:58:01;;;;;;;1.20;0.82;;;24.30;17.10;;;;;;5048272;28;20029;-56
2022/04/07 09:00:27;;;;;;;3.83;0.88;;;24.70;14.80;;;;;;5030486;28;20021;-55
2022/04/07 09:02:53;;;;;;;4.65;1.05;;;25.90;14.20;;;;;;5046334;28;20556;-57
2022/04/07 09:06:17;;;;;;;7.32;1.10;;;25.60;10.80;;;;;;5029027;28;20036;-55
2022/04/07 09:09:48;;;;;;;1.77;1.00;;;25.40;9.10;;;;;;5009244;28;20401;-56
2022/04/07 09:13:13;;;;;;;1.10;0.80;;;23.10;12.90;;;;;;5029360;28;20128;-55
2022/04/07 09:16:39;;;;;;;3.42;0.90;;;21.00;16.20;;;;;;5037672;28;20037;-49
2022/04/07 09:20:04;;;;;;;2.85;0.90;;;19.80;18.70;;;;;;5045028;28;20395;-52
2022/04/07 09:23:36;;;;;;;15.88;2.00;;;19.60;19.90;;;;;;5026505;28;20034;-55
2022/04/07 09:27:01;;;;;;;3.15;1.08;;;19.20;20.00;;;;;;5035434;28;20122;-56
2022/04/07 09:30:26;;;;;;;2.80;0.73;;;18.10;22.20;;;;;;5029165;28;20039;-61
2022/04/07 09:34:02;;;;;;;0.95;0.60;;;17.30;24.80;;;;;;5040675;28;20036;-61
2022/04/07 09:37:26;;;;;;;4.57;0.52;;;16.90;26.80;;;;;;5042691;28;20032;-61
2022/04/07 09:40:55;;;;;;;0.93;0.60;;;16.70;27.10;;;;;;5037214;28;20025;-61
2022/04/07 09:44:22;;;;;;;1.75;0.60;;;16.70;28.00;;;;;;5009051;28;20137;-61
2022/04/07 09:47:58;;;;;;;0.88;0.43;;;17.00;27.00;;;;;;5043878;28;20033;-61
2022/04/07 09:51:23;;;;;;;3.53;0.70;;;17.10;26.80;;;;;;5008879;28;20053;-61
2022/04/07 09:54:48;;;;;;;1.45;0.50;;;16.70;26.60;;;;;;5037027;28;20077;-62
2022/04/07 09:58:14;;;;;;;1.08;0.57;;;16.50;28.00;;;;;;5023734;28;20033;-61
2022/04/07 10:01:42;;;;;;;2.35;0.50;;;16.40;28.70;;;;;;5036936;28;20477;-61
2022/04/07 10:04:47;;;;;;;;;;;17.30;27.10;;;;;;5045343;28;20044;-62
2022/04/07 10:08:13;;;;;;;2.80;0.85;;;17.30;25.40;;;;;;5029560;28;19913;-61
2022/04/07 10:11:38;;;;;;;4.90;0.93;;;16.80;25.60;;;;;;5037387;28;20492;-61
2022/04/07 10:15:03;;;;;;;0.60;0.40;;;16.80;25.50;;;;;;5015657;28;20034;-61
2022/04/07 10:18:29;;;;;;;4.95;0.40;;;16.90;25.40;;;;;;5012948;28;20029;-61
2022/04/07 10:21:57;;;;;;;1.85;0.40;;;16.40;26.00;;;;;;4989490;28;20057;-61
2022/04/07 10:25:28;;;;;;;2.33;0.50;;;16.30;27.00;;;;;;5012781;28;20037;-61
2022/04/07 10:28:54;;;;;;;6.22;0.65;;;16.30;27.20;;;;;;5021844;28;20476;-61
2022/04/07 10:32:09;;;;;;;4.57;0.50;;;16.50;26.90;;;;;;5023681;28;20046;-61
2022/04/07 10:35:29;;;;;;;0.80;0.50;;;16.80;26.10;;;;;;5009339;28;20065;-61
2022/04/07 10:39:00;;;;;;;1.38;0.63;;;17.00;25.70;;;;;;5021774;28;20033;-61
2022/04/07 10:42:25;;;;;;;0.50;0.40;;;17.00;25.70;;;;;;5021269;28;20057;-61
2022/04/07 10:45:50;;;;;;;0.88;0.55;;;16.40;27.00;;;;;;4998658;28;20473;-62
2022/04/07 10:49:19;;;;;;;0.70;0.52;;;16.60;27.10;;;;;;5039766;28;20140;-61
2022/04/07 10:52:24;;;;;;;;;;;16.90;26.40;;;;;;5043296;28;20041;-61
2022/04/07 10:55:50;;;;;;;0.50;0.50;;;17.10;26.80;;;;;;5040230;28;19909;-61
2022/04/07 10:59:07;;;;;;;0.60;0.40;;;17.10;26.20;;;;;;5049463;28;20407;-61
2022/04/07 11:02:33;;;;;;;0.65;0.38;;;16.80;26.80;;;;;;5040365;28;20548;-61
2022/04/07 11:06:13;;;;;;;0.50;0.50;;;16.50;27.50;;;;;;5011283;28;20041;-61
2022/04/07 11:09:40;;;;;;;1.08;0.30;;;16.20;28.30;;;;;;5043105;28;20033;-61
2022/04/07 11:13:14;;;;;;;0.57;0.40;;;15.80;30.20;;;;;;5027598;28;20092;-61
2022/04/07 11:16:42;;;;;;;6.40;0.80;;;15.60;34.10;;;;;;5039964;28;20049;-61
2022/04/07 11:20:08;;;;;;;2.95;0.50;;;15.10;37.00;;;;;;5041635;28;20507;-61
2022/04/07 11:23:26;;;;;;;;;;;14.70;43.70;;;;;;5025086;28;20038;-61
2022/04/07 11:26:51;;;;;;;1.67;0.77;;;14.60;47.10;;;;;;5009762;28;19910;-61
2022/04/07 11:30:25;;;;;;;2.40;0.65;;;14.50;48.30;;;;;;5032228;28;20384;-61
2022/04/07 11:33:14;;;;;;;2.60;0.60;;;14.40;44.40;;;;;;5040725;28;20064;-61
2022/04/07 11:35:59;;;;;;;0.75;0.50;;;14.40;46.90;;;;;;5010941;28;20456;-61
2022/04/07 11:39:25;;;;;;;0.60;0.43;;;14.40;46.40;;;;;;5010678;28;20116;-61
2022/04/07 11:42:50;;;;;;;2.88;0.70;;;14.60;41.60;;;;;;5034705;28;20026;-61
2022/04/07 11:46:15;;;;;;;1.55;0.73;;;14.80;41.50;;;;;;5039015;28;20063;-61
2022/04/07 11:49:41;;;;;;;1.92;0.93;;;14.70;41.60;;;;;;5045571;28;20052;-61
2022/04/07 11:53:06;;;;;;;0.40;0.40;;;14.70;41.90;;;;;;5026811;28;20045;-61
2022/04/07 11:56:32;;;;;;;0.57;0.40;;;14.50;39.40;;;;;;5043588;28;20036;-61
2022/04/07 11:59:57;;;;;;;2.22;0.60;;;14.50;39.90;;;;;;5010251;28;20034;-61
2022/04/07 12:03:22;;;;;;;3.45;0.55;;;14.60;39.20;;;;;;5033814;28;20059;-61
2022/04/07 12:06:48;;;;;;;7.15;1.48;;;14.70;38.20;;;;;;5010202;28;20038;-61
2022/04/07 12:10:14;;;;;;;1.00;0.95;;;15.00;39.30;;;;;;5045912;28;20508;-61
2022/04/07 12:13:38;;;;;;;1.67;0.60;;;15.20;40.60;;;;;;5037918;28;20037;-61
2022/04/07 12:17:04;;;;;;;0.90;0.90;;;14.90;40.70;;;;;;5036715;28;20037;-61
2022/04/07 12:19:49;;;;;;;3.50;0.60;;;14.70;42.30;;;;;;5009959;28;20034;-61
2022/04/07 12:22:16;;;;;;;0.40;0.40;;;14.50;44.60;;;;;;5046462;28;20017;-58
2022/04/07 12:25:04;;;;;;;1.33;0.40;;;14.30;49.60;;;;;;5030145;28;20540;-59
2022/04/07 12:27:31;;;;;;;2.53;0.43;;;14.20;55.70;;;;;;5047399;28;20496;-59
2022/04/07 12:29:58;;;;;;;3.85;0.68;;;14.10;55.20;;;;;;5030162;28;20499;-59
2022/04/07 12:32:25;;;;;;;1.35;0.50;;;13.90;57.50;;;;;;5039663;28;20041;-59
2022/04/07 12:34:50;;;;;;;4.90;1.17;;;13.80;59.20;;;;;;5048909;28;20049;-59
2022/04/07 12:37:28;;;;;;;0.65;0.50;;;13.60;64.20;;;;;;5032462;28;20118;-59
2022/04/07 12:39:54;;;;;;;0.68;0.52;;;13.40;77.20;;;;;;5029140;28;20029;-59
2022/04/07 12:42:21;;;;;;;2.00;0.80;;;13.20;84.00;;;;;;5049097;28;20029;-59
2022/04/07 12:44:48;;;;;;;1.05;0.77;;;13.00;81.50;;;;;;5028266;28;20030;-59
2022/04/07 12:47:18;;;;;;;1.55;0.50;;;13.00;85.60;;;;;;5048125;28;20035;-59
2022/04/07 12:49:58;;;;;;;6.00;0.70;;;12.90;91.00;;;;;;5028010;28;20041;-58
2022/04/07 12:52:53;;;;;;;3.03;0.68;;;12.90;90.90;;;;;;5010031;28;20117;-59
2022/04/07 12:55:19;;;;;;;2.70;0.57;;;12.90;92.00;;;;;;4996816;28;20038;-58
2022/04/07 12:57:45;;;;;;;1.05;0.65;;;13.00;90.70;;;;;;5033797;28;20026;-59
2022/04/07 13:00:51;;;;;;;4.35;1.30;;;13.00;91.40;;;;;;5037959;28;20037;-58
2022/04/07 13:04:29;;;;;;;1.95;0.50;;;13.30;89.20;;;;;;5024165;28;20117;-58
2022/04/07 13:07:54;;;;;;;1.25;0.70;;;13.40;87.80;;;;;;5035210;28;20495;-59
2022/04/07 13:11:19;;;;;;;2.50;0.80;;;13.40;88.50;;;;;;5008319;28;20045;-58
2022/04/07 13:14:45;;;;;;;2.53;0.30;;;13.30;93.10;;;;;;5042506;28;20507;-59
2022/04/07 13:18:10;;;;;;;0.70;0.50;;;13.30;95.40;;;;;;5033469;28;20044;-60
2022/04/07 13:21:37;;;;;;;0.60;0.60;;;13.20;97.00;;;;;;5008448;28;20034;-59
2022/04/07 13:25:01;;;;;;;0.40;0.40;;;13.00;98.60;;;;;;5043711;28;20033;-59
2022/04/07 13:28:26;;;;;;;1.75;0.38;;;13.00;97.90;;;;;;5042515;28;20036;-52
2022/04/07 13:31:51;;;;;;;1.15;0.50;;;12.90;98.90;;;;;;5044442;28;20048;-54
2022/04/07 13:35:17;;;;;;;1.15;0.28;;;12.90;97.70;;;;;;5045923;28;20025;-56
2022/04/07 13:38:42;;;;;;;0.75;0.60;;;13.00;95.70;;;;;;5023272;28;20420;-56
2022/04/07 13:42:08;;;;;;;6.63;0.70;;;12.90;93.40;;;;;;5044450;28;20037;-55
2022/04/07 13:45:33;;;;;;;5.03;0.77;;;12.80;93.20;;;;;;5036661;28;20041;-55
2022/04/07 13:48:58;;;;;;;2.10;0.40;;;12.80;91.70;;;;;;5037816;28;20069;-51
2022/04/07 13:52:24;;;;;;;0.70;0.50;;;12.80;90.00;;;;;;5037539;28;20059;-55
2022/04/07 13:55:49;;;;;;;2.72;0.50;;;12.90;86.10;;;;;;5037156;28;20401;-53
2022/04/07 13:59:14;;;;;;;0.65;0.50;;;13.00;84.70;;;;;;5028492;28;20055;-55
2022/04/07 14:02:40;;;;;;;2.10;0.40;;;13.00;87.20;;;;;;5044045;28;20143;-56
2022/04/07 14:06:05;;;;;;;0.95;0.50;;;13.10;83.10;;;;;;5039889;28;20381;-53
2022/04/07 14:09:31;;;;;;;3.33;0.50;;;13.00;89.80;;;;;;5046427;28;20033;-54
2022/04/07 14:12:56;;;;;;;2.88;0.47;;;12.90;94.10;;;;;;5045341;28;20501;-52
2022/04/07 14:16:21;;;;;;;2.75;0.43;;;12.80;97.10;;;;;;5011992;28;20034;-54
2022/04/07 14:19:47;;;;;;;1.73;0.50;;;12.60;99.90;;;;;;5022572;28;20044;-49
2022/04/07 14:23:12;;;;;;;2.42;0.40;;;12.30;99.90;;;;;;5040069;28;20041;-52
2022/04/07 14:26:41;;;;;;;0.98;0.50;;;12.10;99.90;;;;;;5048626;28;20037;-55
2022/04/07 14:29:23;;;;;;;2.25;0.40;;;11.90;99.90;;;;;;5031494;28;20445;-56
2022/04/07 14:31:48;;;;;;;3.88;0.82;;;11.70;99.90;;;;;;5030255;28;20060;-49
2022/04/07 14:34:14;;;;;;;3.92;0.60;;;11.20;99.90;;;;;;5031640;28;20029;-52
2022/04/07 14:36:41;;;;;;;1.27;0.30;;;10.60;99.90;;;;;;5051266;28;20068;-54
2022/04/07 14:39:46;;;;;;;1.35;0.35;;;10.10;99.90;;;;;;5032520;28;20028;-52
2022/04/07 14:43:11;;;;;;;0.50;0.40;;;9.70;99.90;;;;;;5011206;28;20527;-52
2022/04/07 14:46:37;;;;;;;0.40;0.40;;;9.40;99.90;;;;;;5047266;28;20029;-55
2022/04/07 14:50:02;;;;;;;1.67;0.57;;;9.10;99.90;;;;;;5037753;28;20500;-50
2022/04/07 14:53:28;;;;;;;0.82;0.50;;;9.00;99.90;;;;;;5011227;28;20050;-55
2022/04/07 14:56:53;;;;;;;0.55;0.40;;;8.80;99.90;;;;;;5047052;28;20043;-52
2022/04/07 15:00:18;;;;;;;0.88;0.40;;;8.70;99.90;;;;;;5044123;28;20033;-52
2022/04/07 15:03:44;;;;;;;1.85;0.60;;;8.60;99.90;;;;;;5010332;28;20050;-55
2022/04/07 15:07:09;;;;;;;3.03;0.60;;;8.50;99.90;;;;;;5044045;28;20028;-49
2022/04/07 15:10:34;;;;;;;1.52;0.65;;;8.40;99.90;;;;;;5045741;28;20056;-51
2022/04/07 15:14:00;;;;;;;1.20;0.50;;;8.30;99.90;;;;;;5040121;28;20517;-53
2022/04/07 15:17:30;;;;;;;2.55;0.80;;;8.20;99.90;;;;;;5040517;28;20037;-49
2022/04/07 15:20:54;;;;;;;1.75;0.73;;;8.10;99.90;;;;;;5036626;28;20041;-51
2022/04/07 15:24:19;;;;;;;2.40;0.68;;;8.10;99.90;;;;;;5047251;28;20472;-48
2022/04/07 15:27:44;;;;;;;1.70;0.80;;;8.30;99.90;;;;;;5032459;28;20045;-49
2022/04/07 15:31:10;;;;;;;0.88;0.70;;;8.70;99.90;;;;;;5028817;28;20048;-50
2022/04/07 15:34:35;;;;;;;1.20;1.05;;;9.30;99.90;;;;;;5043095;28;20404;-52
2022/04/07 15:38:00;;;;;;;2.63;0.90;;;9.70;99.90;;;;;;5035992;28;20033;-49
2022/04/07 15:41:25;;;;;;;2.10;0.70;;;9.70;99.90;;;;;;5042121;28;20060;-55
2022/04/07 15:44:51;;;;;;;1.08;0.70;;;9.50;99.90;;;;;;5016577;28;20055;-55
2022/04/07 15:48:16;;;;;;;1.30;1.15;;;9.40;99.90;;;;;;5036558;28;20037;-50
2022/04/07 15:51:42;;;;;;;1.40;0.80;;;9.30;99.90;;;;;;5027702;28;20409;-50
2022/04/07 15:55:07;;;;;;;2.13;1.05;;;9.30;99.90;;;;;;5037424;28;20094;-51
2022/04/07 15:58:32;;;;;;;1.95;0.73;;;9.40;99.90;;;;;;5010354;28;20037;-52
2022/04/07 16:01:57;;;;;;;7.82;1.42;;;9.60;99.90;;;;;;5046616;28;20292;-52